sensor_id;sensor_type;location;lat;lon;timestamp;pressure;altitude;pressure_sealevel;temperature;humidity
63554;BME280;49699;48.072;7.800;2023-06-01T00:01:16;99494.72;;;13.20;60.79
63554;BME280;49699;48.072;7.800;2023-06-01T00:03:42;99494.06;;;13.17;61.08
63554;BME280;49699;48.072;7.800;2023-06-01T00:06:07;99496.03;;;13.13;61.01
63554;BME280;49699;48.072;7.800;2023-06-01T00:08:33;99485.56;;;13.13;61.15
63554;BME280;49699;48.072;7.800;2023-06-01T00:10:58;99482.00;;;13.14;61.26
63554;BME280;49699;48.072;7.800;2023-06-01T00:13:24;99482.00;;;13.14;61.31
63554;BME280;49699;48.072;7.800;2023-06-01T00:15:49;99492.41;;;13.16;61.41
63554;BME280;49699;48.072;7.800;2023-06-01T00:18:16;99488.09;;;13.15;61.36
63554;BME280;49699;48.072;7.800;2023-06-01T00:20:42;99486.34;;;13.15;61.39
63554;BME280;49699;48.072;7.800;2023-06-01T00:23:08;99488.84;;;13.17;61.46
63554;BME280;49699;48.072;7.800;2023-06-01T00:25:34;99493.13;;;13.18;61.77
63554;BME280;49699;48.072;7.800;2023-06-01T00:27:59;99485.28;;;13.18;61.78
63554;BME280;49699;48.072;7.800;2023-06-01T00:30:27;99486.22;;;13.17;61.90
63554;BME280;49699;48.072;7.800;2023-06-01T00:32:52;99479.34;;;13.16;61.93
63554;BME280;49699;48.072;7.800;2023-06-01T00:35:17;99479.34;;;13.16;62.10
63554;BME280;49699;48.072;7.800;2023-06-01T00:37:43;99483.72;;;13.15;62.20
63554;BME280;49699;48.072;7.800;2023-06-01T00:40:08;99481.19;;;13.14;62.13
63554;BME280;49699;48.072;7.800;2023-06-01T00:42:33;99482.94;;;13.13;62.38
63554;BME280;49699;48.072;7.800;2023-06-01T00:44:59;99473.63;;;13.09;62.73
63554;BME280;49699;48.072;7.800;2023-06-01T00:47:24;99469.16;;;12.99;63.10
63554;BME280;49699;48.072;7.800;2023-06-01T00:49:49;99477.81;;;12.86;63.47
63554;BME280;49699;48.072;7.800;2023-06-01T00:52:15;99468.06;;;12.76;64.01
63554;BME280;49699;48.072;7.800;2023-06-01T00:54:40;99470.44;;;12.66;64.36
63554;BME280;49699;48.072;7.800;2023-06-01T00:57:06;99481.19;;;12.62;64.73
63554;BME280;49699;48.072;7.800;2023-06-01T00:59:33;99472.81;;;12.57;64.76
63554;BME280;49699;48.072;7.800;2023-06-01T01:01:59;99474.66;;;12.55;64.76
63554;BME280;49699;48.072;7.800;2023-06-01T01:04:24;99467.81;;;12.54;64.96
63554;BME280;49699;48.072;7.800;2023-06-01T01:09:39;99464.13;;;12.56;65.11
63554;BME280;49699;48.072;7.800;2023-06-01T01:12:10;99476.44;;;12.54;65.64
63554;BME280;49699;48.072;7.800;2023-06-01T01:14:41;99468.63;;;12.54;65.75
63554;BME280;49699;48.072;7.800;2023-06-01T01:17:29;99467.81;;;12.54;65.57
63554;BME280;49699;48.072;7.800;2023-06-01T01:20:08;99471.13;;;12.56;65.57
63554;BME280;49699;48.072;7.800;2023-06-01T01:30:47;99474.81;;;12.53;65.68
63554;BME280;49699;48.072;7.800;2023-06-01T01:33:13;99480.84;;;12.54;65.75
63554;BME280;49699;48.072;7.800;2023-06-01T01:35:39;99477.41;;;12.53;65.63
63554;BME280;49699;48.072;7.800;2023-06-01T01:38:06;99476.44;;;12.54;65.79
63554;BME280;49699;48.072;7.800;2023-06-01T01:40:32;99474.81;;;12.53;65.82
63554;BME280;49699;48.072;7.800;2023-06-01T01:42:57;99480.22;;;12.50;66.00
63554;BME280;49699;48.072;7.800;2023-06-01T01:45:23;99475.19;;;12.47;66.12
63554;BME280;49699;48.072;7.800;2023-06-01T01:48:09;99478.81;;;12.44;66.28
63554;BME280;49699;48.072;7.800;2023-06-01T01:50:41;99478.19;;;12.41;66.41
63554;BME280;49699;48.072;7.800;2023-06-01T01:53:12;99477.53;;;12.37;66.47
63554;BME280;49699;48.072;7.800;2023-06-01T01:55:37;99479.44;;;12.35;66.58
63554;BME280;49699;48.072;7.800;2023-06-01T01:58:02;99474.50;;;12.31;66.73
63554;BME280;49699;48.072;7.800;2023-06-01T02:00:28;99480.75;;;12.28;66.80
63554;BME280;49699;48.072;7.800;2023-06-01T02:02:55;99473.09;;;12.25;67.05
63554;BME280;49699;48.072;7.800;2023-06-01T02:05:20;99478.53;;;12.22;67.31
63554;BME280;49699;48.072;7.800;2023-06-01T02:07:46;99478.00;;;12.17;67.53
63554;BME280;49699;48.072;7.800;2023-06-01T02:10:12;99474.66;;;12.15;67.27
63554;BME280;49699;48.072;7.800;2023-06-01T02:12:38;99483.41;;;12.14;67.56
63554;BME280;49699;48.072;7.800;2023-06-01T02:15:04;99481.72;;;12.13;67.54
63554;BME280;49699;48.072;7.800;2023-06-01T02:17:30;99482.66;;;12.12;67.56
63554;BME280;49699;48.072;7.800;2023-06-01T02:19:56;99480.97;;;12.11;67.76
63554;BME280;49699;48.072;7.800;2023-06-01T02:22:21;99471.66;;;12.07;67.72
63554;BME280;49699;48.072;7.800;2023-06-01T02:24:46;99475.03;;;12.09;67.92
63554;BME280;49699;48.072;7.800;2023-06-01T02:27:12;99474.19;;;12.08;67.52
63554;BME280;49699;48.072;7.800;2023-06-01T02:29:37;99472.59;;;12.06;68.08
63554;BME280;49699;48.072;7.800;2023-06-01T02:32:03;99474.47;;;12.04;68.18
63554;BME280;49699;48.072;7.800;2023-06-01T02:34:28;99470.28;;;12.01;68.31
63554;BME280;49699;48.072;7.800;2023-06-01T02:36:54;99463.59;;;11.97;68.20
63554;BME280;49699;48.072;7.800;2023-06-01T02:39:21;99468.81;;;11.97;68.49
63554;BME280;49699;48.072;7.800;2023-06-01T02:41:46;99465.47;;;11.95;68.47
63554;BME280;49699;48.072;7.800;2023-06-01T02:44:12;99472.44;;;11.95;68.50
63554;BME280;49699;48.072;7.800;2023-06-01T02:46:37;99464.81;;;11.92;68.47
63554;BME280;49699;48.072;7.800;2023-06-01T02:49:02;99465.94;;;11.88;69.04
63554;BME280;49699;48.072;7.800;2023-06-01T02:51:29;99466.13;;;11.85;68.90
63554;BME280;49699;48.072;7.800;2023-06-01T02:54:04;99462.66;;;11.84;69.04
63554;BME280;49699;48.072;7.800;2023-06-01T02:56:30;99467.88;;;11.84;68.67
63554;BME280;49699;48.072;7.800;2023-06-01T02:59:14;99466.19;;;11.83;68.89
63554;BME280;49699;48.072;7.800;2023-06-01T03:01:45;99466.50;;;11.78;69.33
63554;BME280;49699;48.072;7.800;2023-06-01T03:04:11;99465.91;;;11.73;69.45
63554;BME280;49699;48.072;7.800;2023-06-01T03:06:38;99467.03;;;11.69;69.25
63554;BME280;49699;48.072;7.800;2023-06-01T03:09:17;99470.56;;;11.68;69.70
63554;BME280;49699;48.072;7.800;2023-06-01T03:11:52;99473.34;;;11.65;69.57
63554;BME280;49699;48.072;7.800;2023-06-01T03:14:17;99475.25;;;11.63;69.92
63554;BME280;49699;48.072;7.800;2023-06-01T03:16:43;99467.78;;;11.57;70.29
63554;BME280;49699;48.072;7.800;2023-06-01T03:19:16;99482.78;;;11.54;70.52
63554;BME280;49699;48.072;7.800;2023-06-01T03:21:42;99473.66;;;11.46;70.84
63554;BME280;49699;48.072;7.800;2023-06-01T03:24:07;99474.47;;;11.47;70.67
63554;BME280;49699;48.072;7.800;2023-06-01T03:26:32;99471.88;;;11.47;70.47
63554;BME280;49699;48.072;7.800;2023-06-01T03:28:58;99478.84;;;11.46;70.69
63554;BME280;49699;48.072;7.800;2023-06-01T03:31:24;99478.06;;;11.46;70.55
63554;BME280;49699;48.072;7.800;2023-06-01T03:33:54;99477.38;;;11.42;70.66
63554;BME280;49699;48.072;7.800;2023-06-01T03:36:19;99473.84;;;11.43;70.99
63554;BME280;49699;48.072;7.800;2023-06-01T03:38:44;99473.09;;;11.41;70.74
63554;BME280;49699;48.072;7.800;2023-06-01T03:41:10;99480.94;;;11.41;70.79
63554;BME280;49699;48.072;7.800;2023-06-01T03:43:35;99481.84;;;11.40;70.79
63554;BME280;49699;48.072;7.800;2023-06-01T03:46:00;99483.72;;;11.38;70.99
63554;BME280;49699;48.072;7.800;2023-06-01T03:48:26;99488.00;;;11.39;70.90
63554;BME280;49699;48.072;7.800;2023-06-01T03:50:51;99492.38;;;11.39;71.10
63554;BME280;49699;48.072;7.800;2023-06-01T03:53:17;99497.50;;;11.40;71.26
63554;BME280;49699;48.072;7.800;2023-06-01T03:55:42;99500.94;;;11.41;71.09
63554;BME280;49699;48.072;7.800;2023-06-01T03:58:24;99497.41;;;11.42;71.21
63554;BME280;49699;48.072;7.800;2023-06-01T04:00:49;99499.91;;;11.43;70.94
63554;BME280;49699;48.072;7.800;2023-06-01T04:03:15;99498.78;;;11.47;70.93
63554;BME280;49699;48.072;7.800;2023-06-01T04:05:40;99502.22;;;11.48;71.21
63554;BME280;49699;48.072;7.800;2023-06-01T04:08:06;99505.75;;;11.47;70.98
63554;BME280;49699;48.072;7.800;2023-06-01T04:10:34;99505.75;;;11.47;71.19
63554;BME280;49699;48.072;7.800;2023-06-01T04:12:59;99511.81;;;11.47;71.23
63554;BME280;49699;48.072;7.800;2023-06-01T04:15:28;99501.38;;;11.47;71.44
63554;BME280;49699;48.072;7.800;2023-06-01T04:17:53;99507.34;;;11.49;71.52
63554;BME280;49699;48.072;7.800;2023-06-01T04:20:19;99512.47;;;11.51;71.30
63554;BME280;49699;48.072;7.800;2023-06-01T04:22:46;99510.53;;;11.55;71.17
63554;BME280;49699;48.072;7.800;2023-06-01T04:25:13;99512.03;;;11.59;71.09
63554;BME280;49699;48.072;7.800;2023-06-01T04:27:43;99509.03;;;11.65;70.78
63554;BME280;49699;48.072;7.800;2023-06-01T04:30:10;99516.66;;;11.68;71.04
63554;BME280;49699;48.072;7.800;2023-06-01T04:32:37;99524.31;;;11.71;71.10
63554;BME280;49699;48.072;7.800;2023-06-01T04:35:07;99530.13;;;11.76;70.65
63554;BME280;49699;48.072;7.800;2023-06-01T04:37:33;99527.31;;;11.79;70.25
63554;BME280;49699;48.072;7.800;2023-06-01T04:40:00;99530.56;;;11.82;70.47
63554;BME280;49699;48.072;7.800;2023-06-01T04:42:25;99517.25;;;11.87;70.38
63554;BME280;49699;48.072;7.800;2023-06-01T04:44:50;99520.22;;;11.95;70.17
63554;BME280;49699;48.072;7.800;2023-06-01T04:47:16;99522.44;;;12.01;69.93
63554;BME280;49699;48.072;7.800;2023-06-01T04:49:45;99523.66;;;12.10;69.67
63554;BME280;49699;48.072;7.800;2023-06-01T04:52:11;99524.13;;;12.16;69.41
63554;BME280;49699;48.072;7.800;2023-06-01T04:54:40;99529.78;;;12.23;69.52
63554;BME280;49699;48.072;7.800;2023-06-01T04:57:05;99533.69;;;12.30;69.15
63554;BME280;49699;48.072;7.800;2023-06-01T04:59:31;99532.34;;;12.37;69.08
63554;BME280;49699;48.072;7.800;2023-06-01T05:02:06;99535.41;;;12.44;68.74
63554;BME280;49699;48.072;7.800;2023-06-01T05:04:31;99530.66;;;12.50;68.45
63554;BME280;49699;48.072;7.800;2023-06-01T05:06:57;99532.75;;;12.58;68.24
63554;BME280;49699;48.072;7.800;2023-06-01T05:09:22;99540.00;;;12.67;68.09
63554;BME280;49699;48.072;7.800;2023-06-01T05:11:48;99544.72;;;12.75;67.69
63554;BME280;49699;48.072;7.800;2023-06-01T05:14:13;99545.91;;;12.83;67.15
63554;BME280;49699;48.072;7.800;2023-06-01T05:16:39;99549.69;;;12.92;66.67
63554;BME280;49699;48.072;7.800;2023-06-01T05:19:04;99542.00;;;13.03;66.47
63554;BME280;49699;48.072;7.800;2023-06-01T05:21:30;99547.44;;;13.13;66.07
63554;BME280;49699;48.072;7.800;2023-06-01T05:23:57;99539.25;;;13.19;65.74
63554;BME280;49699;48.072;7.800;2023-06-01T05:26:22;99546.56;;;13.27;65.47
63554;BME280;49699;48.072;7.800;2023-06-01T05:28:47;99553.78;;;13.36;65.31
63554;BME280;49699;48.072;7.800;2023-06-01T05:31:13;99549.00;;;13.42;65.04
63554;BME280;49699;48.072;7.800;2023-06-01T05:33:43;99550.25;;;13.49;64.73
63554;BME280;49699;48.072;7.800;2023-06-01T05:36:08;99553.09;;;13.59;64.56
63554;BME280;49699;48.072;7.800;2023-06-01T05:38:35;99553.28;;;13.69;64.26
63554;BME280;49699;48.072;7.800;2023-06-01T05:41:00;99557.91;;;13.78;63.93
63554;BME280;49699;48.072;7.800;2023-06-01T05:43:25;99555.56;;;13.86;63.66
63554;BME280;49699;48.072;7.800;2023-06-01T05:45:51;99550.56;;;13.96;63.46
63554;BME280;49699;48.072;7.800;2023-06-01T05:48:16;99556.91;;;14.04;63.25
63554;BME280;49699;48.072;7.800;2023-06-01T05:50:47;99543.19;;;14.13;63.04
63554;BME280;49699;48.072;7.800;2023-06-01T05:53:12;99542.53;;;14.22;62.85
63554;BME280;49699;48.072;7.800;2023-06-01T05:55:38;99535.72;;;14.33;62.73
63554;BME280;49699;48.072;7.800;2023-06-01T05:58:03;99540.00;;;14.46;62.17
63554;BME280;49699;48.072;7.800;2023-06-01T06:00:30;99535.63;;;14.58;62.17
63554;BME280;49699;48.072;7.800;2023-06-01T06:02:56;99546.16;;;14.69;61.93
63554;BME280;49699;48.072;7.800;2023-06-01T06:05:21;99539.53;;;14.76;61.54
63554;BME280;49699;48.072;7.800;2023-06-01T06:07:47;99540.78;;;14.83;61.67
63554;BME280;49699;48.072;7.800;2023-06-01T06:10:12;99547.22;;;14.90;61.35
63554;BME280;49699;48.072;7.800;2023-06-01T06:12:37;99546.56;;;15.00;61.23
63554;BME280;49699;48.072;7.800;2023-06-01T06:15:03;99552.78;;;15.10;61.04
63554;BME280;49699;48.072;7.800;2023-06-01T06:17:29;99546.75;;;15.20;61.12
63554;BME280;49699;48.072;7.800;2023-06-01T06:19:54;99545.22;;;15.29;60.74
63554;BME280;49699;48.072;7.800;2023-06-01T06:22:19;99547.16;;;15.38;60.64
63554;BME280;49699;48.072;7.800;2023-06-01T06:24:45;99549.78;;;15.49;60.45
63554;BME280;49699;48.072;7.800;2023-06-01T06:27:12;99544.34;;;15.63;60.42
63554;BME280;49699;48.072;7.800;2023-06-01T06:29:37;99539.00;;;15.76;59.90
63554;BME280;49699;48.072;7.800;2023-06-01T06:32:02;99542.47;;;15.88;59.59
63554;BME280;49699;48.072;7.800;2023-06-01T06:34:28;99550.22;;;16.01;59.21
63554;BME280;49699;48.072;7.800;2023-06-01T06:37:00;99550.91;;;16.14;59.04
63554;BME280;49699;48.072;7.800;2023-06-01T06:39:25;99547.47;;;16.24;58.71
63554;BME280;49699;48.072;7.800;2023-06-01T06:41:50;99542.06;;;16.37;58.38
63554;BME280;49699;48.072;7.800;2023-06-01T06:44:16;99547.16;;;16.50;58.08
63554;BME280;49699;48.072;7.800;2023-06-01T06:46:41;99551.09;;;16.66;57.76
63554;BME280;49699;48.072;7.800;2023-06-01T06:49:06;99544.59;;;16.82;57.32
63554;BME280;49699;48.072;7.800;2023-06-01T06:51:32;99555.41;;;16.99;56.94
63554;BME280;49699;48.072;7.800;2023-06-01T06:53:57;99549.47;;;17.18;56.31
63554;BME280;49699;48.072;7.800;2023-06-01T06:56:23;99549.59;;;17.38;55.94
63554;BME280;49699;48.072;7.800;2023-06-01T06:58:48;99551.06;;;17.51;55.49
63554;BME280;49699;48.072;7.800;2023-06-01T07:01:14;99552.66;;;17.63;55.24
63554;BME280;49699;48.072;7.800;2023-06-01T07:03:40;99543.59;;;17.77;54.68
63554;BME280;49699;48.072;7.800;2023-06-01T07:06:05;99550.88;;;17.94;54.49
63554;BME280;49699;48.072;7.800;2023-06-01T07:08:31;99542.50;;;18.10;53.86
63554;BME280;49699;48.072;7.800;2023-06-01T07:10:59;99540.22;;;18.26;53.40
63554;BME280;49699;48.072;7.800;2023-06-01T07:13:25;99543.03;;;18.44;52.95
63554;BME280;49699;48.072;7.800;2023-06-01T07:15:50;99544.75;;;18.64;52.58
63554;BME280;49699;48.072;7.800;2023-06-01T07:18:15;99547.53;;;18.82;52.00
63554;BME280;49699;48.072;7.800;2023-06-01T07:20:40;99543.81;;;18.94;51.64
63554;BME280;49699;48.072;7.800;2023-06-01T07:23:06;99543.66;;;19.05;51.21
63554;BME280;49699;48.072;7.800;2023-06-01T07:25:31;99541.97;;;19.24;50.87
63554;BME280;49699;48.072;7.800;2023-06-01T07:27:56;99543.19;;;19.49;50.44
63554;BME280;49699;48.072;7.800;2023-06-01T07:30:23;99537.91;;;19.68;49.80
63554;BME280;49699;48.072;7.800;2023-06-01T07:32:48;99538.00;;;19.86;49.53
63554;BME280;49699;48.072;7.800;2023-06-01T07:35:13;99540.69;;;20.03;49.11
63554;BME280;49699;48.072;7.800;2023-06-01T07:37:39;99527.75;;;20.28;48.51
63554;BME280;49699;48.072;7.800;2023-06-01T07:40:06;99533.66;;;20.49;47.95
63554;BME280;49699;48.072;7.800;2023-06-01T07:42:31;99535.69;;;20.55;47.48
63554;BME280;49699;48.072;7.800;2023-06-01T07:44:57;99532.44;;;20.61;47.57
63554;BME280;49699;48.072;7.800;2023-06-01T07:47:22;99533.66;;;20.85;47.27
63554;BME280;49699;48.072;7.800;2023-06-01T07:49:50;99530.63;;;21.15;46.59
63554;BME280;49699;48.072;7.800;2023-06-01T07:52:15;99533.44;;;21.31;45.89
63554;BME280;49699;48.072;7.800;2023-06-01T07:54:40;99530.84;;;21.39;45.80
63554;BME280;49699;48.072;7.800;2023-06-01T07:57:06;99529.66;;;21.60;45.47
63554;BME280;49699;48.072;7.800;2023-06-01T07:59:31;99520.66;;;21.78;45.33
63554;BME280;49699;48.072;7.800;2023-06-01T08:01:57;99526.44;;;22.00;44.82
63554;BME280;49699;48.072;7.800;2023-06-01T08:04:23;99520.06;;;22.19;44.38
63554;BME280;49699;48.072;7.800;2023-06-01T08:06:49;99518.44;;;22.42;44.09
63554;BME280;49699;48.072;7.800;2023-06-01T08:09:19;99516.19;;;22.63;43.53
63554;BME280;49699;48.072;7.800;2023-06-01T08:11:44;99514.91;;;22.83;42.93
63554;BME280;49699;48.072;7.800;2023-06-01T08:14:10;99519.06;;;22.94;43.08
63554;BME280;49699;48.072;7.800;2023-06-01T08:16:36;99514.59;;;23.03;42.34
63554;BME280;49699;48.072;7.800;2023-06-01T08:19:01;99515.09;;;23.23;42.10
63554;BME280;49699;48.072;7.800;2023-06-01T08:21:27;99510.75;;;23.38;41.61
63554;BME280;49699;48.072;7.800;2023-06-01T08:23:52;99507.59;;;23.42;41.88
63554;BME280;49699;48.072;7.800;2023-06-01T08:26:20;99510.72;;;23.70;41.44
63554;BME280;49699;48.072;7.800;2023-06-01T08:28:45;99513.41;;;24.01;41.16
63554;BME280;49699;48.072;7.800;2023-06-01T08:31:20;99506.00;;;24.36;40.45
63554;BME280;49699;48.072;7.800;2023-06-01T08:33:45;99505.13;;;24.66;39.84
63554;BME280;49699;48.072;7.800;2023-06-01T08:36:11;99507.59;;;24.90;39.60
63554;BME280;49699;48.072;7.800;2023-06-01T08:38:37;99509.97;;;25.08;38.96
63554;BME280;49699;48.072;7.800;2023-06-01T08:41:14;99504.47;;;25.10;38.31
63554;BME280;49699;48.072;7.800;2023-06-01T08:43:42;99508.75;;;25.19;38.72
63554;BME280;49699;48.072;7.800;2023-06-01T08:46:08;99502.88;;;25.23;38.16
63554;BME280;49699;48.072;7.800;2023-06-01T08:48:35;99496.97;;;25.13;38.33
63554;BME280;49699;48.072;7.800;2023-06-01T08:51:01;99498.38;;;25.24;38.32
63554;BME280;49699;48.072;7.800;2023-06-01T08:53:27;99492.44;;;25.37;38.02
63554;BME280;49699;48.072;7.800;2023-06-01T08:55:54;99499.06;;;25.41;37.82
63554;BME280;49699;48.072;7.800;2023-06-01T08:58:20;99487.28;;;25.50;37.67
63554;BME280;49699;48.072;7.800;2023-06-01T09:00:51;99494.56;;;25.56;37.13
63554;BME280;49699;48.072;7.800;2023-06-01T09:03:19;99492.06;;;25.54;37.40
63554;BME280;49699;48.072;7.800;2023-06-01T09:05:44;99485.28;;;25.52;37.03
63554;BME280;49699;48.072;7.800;2023-06-01T09:08:10;99486.63;;;25.48;37.04
63554;BME280;49699;48.072;7.800;2023-06-01T09:10:35;99479.28;;;25.50;36.95
63554;BME280;49699;48.072;7.800;2023-06-01T09:13:01;99474.91;;;25.57;36.99
63554;BME280;49699;48.072;7.800;2023-06-01T09:15:26;99483.91;;;25.85;36.93
63554;BME280;49699;48.072;7.800;2023-06-01T09:17:52;99477.91;;;26.13;36.42
63554;BME280;49699;48.072;7.800;2023-06-01T09:20:25;99474.19;;;26.28;35.64
63554;BME280;49699;48.072;7.800;2023-06-01T09:22:50;99469.22;;;26.40;35.92
63554;BME280;49699;48.072;7.800;2023-06-01T09:25:16;99472.59;;;26.49;35.54
63554;BME280;49699;48.072;7.800;2023-06-01T09:27:48;99476.59;;;26.59;35.32
63554;BME280;49699;48.072;7.800;2023-06-01T09:30:15;99467.91;;;26.51;35.46
63554;BME280;49699;48.072;7.800;2023-06-01T09:32:40;99469.69;;;26.65;35.34
63554;BME280;49699;48.072;7.800;2023-06-01T09:35:06;99466.69;;;26.75;35.21
63554;BME280;49699;48.072;7.800;2023-06-01T09:37:33;99462.44;;;26.80;34.51
63554;BME280;49699;48.072;7.800;2023-06-01T09:39:58;99452.84;;;26.65;34.65
63554;BME280;49699;48.072;7.800;2023-06-01T09:42:31;99451.03;;;26.72;35.03
63554;BME280;49699;48.072;7.800;2023-06-01T09:45:13;99448.84;;;26.96;34.97
63554;BME280;49699;48.072;7.800;2023-06-01T09:47:38;99442.06;;;27.22;34.23
63554;BME280;49699;48.072;7.800;2023-06-01T09:50:04;99446.13;;;27.52;34.04
63554;BME280;49699;48.072;7.800;2023-06-01T09:52:29;99439.91;;;27.80;33.57
63554;BME280;49699;48.072;7.800;2023-06-01T09:54:54;99443.91;;;27.97;33.77
63554;BME280;49699;48.072;7.800;2023-06-01T09:57:24;99441.66;;;28.00;33.20
63554;BME280;49699;48.072;7.800;2023-06-01T09:59:50;99435.28;;;28.02;33.16
63554;BME280;49699;48.072;7.800;2023-06-01T10:02:16;99436.06;;;27.89;33.23
63554;BME280;49699;48.072;7.800;2023-06-01T10:04:49;99437.72;;;27.90;33.05
63554;BME280;49699;48.072;7.800;2023-06-01T10:07:14;99428.03;;;27.89;33.56
63554;BME280;49699;48.072;7.800;2023-06-01T10:09:41;99426.63;;;27.93;33.97
63554;BME280;49699;48.072;7.800;2023-06-01T10:12:06;99423.84;;;28.21;33.66
63554;BME280;49699;48.072;7.800;2023-06-01T10:14:32;99429.88;;;28.56;32.89
63554;BME280;49699;48.072;7.800;2023-06-01T10:16:58;99424.34;;;28.77;32.37
63554;BME280;49699;48.072;7.800;2023-06-01T10:19:24;99415.66;;;28.68;32.70
63554;BME280;49699;48.072;7.800;2023-06-01T10:21:49;99421.91;;;28.82;32.44
63554;BME280;49699;48.072;7.800;2023-06-01T10:24:18;99414.69;;;28.96;32.18
63554;BME280;49699;48.072;7.800;2023-06-01T10:29:09;99412.44;;;28.80;32.34
63554;BME280;49699;48.072;7.800;2023-06-01T10:31:38;99410.75;;;28.79;32.67
63554;BME280;49699;48.072;7.800;2023-06-01T10:34:05;99408.06;;;28.72;32.62
63554;BME280;49699;48.072;7.800;2023-06-01T10:41:47;99401.69;;;28.60;32.88
63554;BME280;49699;48.072;7.800;2023-06-01T10:44:30;99397.94;;;28.67;32.85
63554;BME280;49699;48.072;7.800;2023-06-01T10:46:58;99390.97;;;28.73;32.59
63554;BME280;49699;48.072;7.800;2023-06-01T10:49:23;99396.13;;;28.61;32.78
63554;BME280;49699;48.072;7.800;2023-06-01T10:51:48;99392.41;;;28.76;32.73
63554;BME280;49699;48.072;7.800;2023-06-01T10:54:25;99395.31;;;29.00;32.47
63554;BME280;49699;48.072;7.800;2023-06-01T10:59:36;99383.13;;;29.18;31.78
63554;BME280;49699;48.072;7.800;2023-06-01T11:02:03;99388.88;;;29.21;31.82
63554;BME280;49699;48.072;7.800;2023-06-01T11:04:35;99379.19;;;29.20;31.67
63554;BME280;49699;48.072;7.800;2023-06-01T11:07:34;99379.81;;;29.16;31.77
63554;BME280;49699;48.072;7.800;2023-06-01T11:09:46;99378.75;;;29.23;31.92
63554;BME280;49699;48.072;7.800;2023-06-01T11:12:11;99374.84;;;29.32;31.68
63554;BME280;49699;48.072;7.800;2023-06-01T11:14:37;99360.56;;;29.52;31.52
63554;BME280;49699;48.072;7.800;2023-06-01T11:17:27;99364.22;;;29.64;30.93
63554;BME280;49699;48.072;7.800;2023-06-01T11:19:57;99361.19;;;29.47;31.19
63554;BME280;49699;48.072;7.800;2023-06-01T11:22:23;99359.56;;;29.33;31.64
63554;BME280;49699;48.072;7.800;2023-06-01T11:24:51;99368.84;;;29.44;31.73
63554;BME280;49699;48.072;7.800;2023-06-01T11:27:18;99352.00;;;29.75;31.54
63554;BME280;49699;48.072;7.800;2023-06-01T11:29:47;99351.91;;;30.01;30.91
63554;BME280;49699;48.072;7.800;2023-06-01T11:32:13;99347.56;;;30.00;30.73
63554;BME280;49699;48.072;7.800;2023-06-01T11:34:40;99341.63;;;29.91;30.76
63554;BME280;49699;48.072;7.800;2023-06-01T11:37:14;99349.00;;;29.96;30.51
63554;BME280;49699;48.072;7.800;2023-06-01T11:39:40;99348.16;;;29.95;30.60
63554;BME280;49699;48.072;7.800;2023-06-01T11:42:06;99345.34;;;29.90;30.36
63554;BME280;49699;48.072;7.800;2023-06-01T11:44:32;99342.66;;;29.90;30.22
63554;BME280;49699;48.072;7.800;2023-06-01T11:46:58;99342.19;;;30.00;30.08
63554;BME280;49699;48.072;7.800;2023-06-01T11:49:24;99337.63;;;30.07;30.02
63554;BME280;49699;48.072;7.800;2023-06-01T11:51:50;99331.16;;;30.15;29.86
63554;BME280;49699;48.072;7.800;2023-06-01T11:54:24;99336.28;;;30.23;29.81
63554;BME280;49699;48.072;7.800;2023-06-01T11:56:51;99327.69;;;30.39;29.75
63554;BME280;49699;48.072;7.800;2023-06-01T11:59:17;99338.50;;;30.57;29.46
63554;BME280;49699;48.072;7.800;2023-06-01T12:01:43;99334.94;;;30.63;29.27
63554;BME280;49699;48.072;7.800;2023-06-01T12:04:15;99333.22;;;30.69;28.94
63554;BME280;49699;48.072;7.800;2023-06-01T12:06:41;99332.34;;;30.75;29.10
63554;BME280;49699;48.072;7.800;2023-06-01T12:09:08;99323.09;;;30.71;28.91
63554;BME280;49699;48.072;7.800;2023-06-01T12:11:33;99324.38;;;30.37;28.83
63554;BME280;49699;48.072;7.800;2023-06-01T12:13:59;99325.31;;;30.24;29.42
63554;BME280;49699;48.072;7.800;2023-06-01T12:16:42;99313.53;;;30.25;29.20
63554;BME280;49699;48.072;7.800;2023-06-01T12:19:13;99314.94;;;30.28;29.06
63554;BME280;49699;48.072;7.800;2023-06-01T12:21:38;99305.53;;;30.19;29.30
63554;BME280;49699;48.072;7.800;2023-06-01T12:24:04;99305.28;;;30.27;28.99
63554;BME280;49699;48.072;7.800;2023-06-01T12:26:36;99304.59;;;30.31;28.51
63554;BME280;49699;48.072;7.800;2023-06-01T12:29:01;99301.81;;;30.45;28.55
63554;BME280;49699;48.072;7.800;2023-06-01T12:31:26;99298.25;;;30.51;28.67
63554;BME280;49699;48.072;7.800;2023-06-01T12:33:52;99299.06;;;30.51;28.89
63554;BME280;49699;48.072;7.800;2023-06-01T12:36:28;99300.09;;;30.50;28.59
63554;BME280;49699;48.072;7.800;2023-06-01T12:38:58;99288.75;;;30.48;28.50
63554;BME280;49699;48.072;7.800;2023-06-01T12:41:26;99293.03;;;30.31;28.35
63554;BME280;49699;48.072;7.800;2023-06-01T12:43:58;99297.97;;;30.34;28.60
63554;BME280;49699;48.072;7.800;2023-06-01T12:46:48;99290.13;;;30.32;28.75
63554;BME280;49699;48.072;7.800;2023-06-01T12:49:20;99280.56;;;30.18;28.74
63554;BME280;49699;48.072;7.800;2023-06-01T12:51:46;99289.25;;;30.14;28.77
63554;BME280;49699;48.072;7.800;2023-06-01T12:54:11;99279.25;;;30.27;28.44
63554;BME280;49699;48.072;7.800;2023-06-01T12:56:37;99284.63;;;30.27;28.45
63554;BME280;49699;48.072;7.800;2023-06-01T12:59:02;99275.19;;;30.43;28.28
63554;BME280;49699;48.072;7.800;2023-06-01T13:01:27;99275.56;;;30.71;28.07
63554;BME280;49699;48.072;7.800;2023-06-01T13:03:53;99276.44;;;30.84;27.47
63554;BME280;49699;48.072;7.800;2023-06-01T13:06:19;99274.38;;;30.86;27.58
63554;BME280;49699;48.072;7.800;2023-06-01T13:08:44;99264.59;;;30.91;27.81
63554;BME280;49699;48.072;7.800;2023-06-01T13:11:09;99264.59;;;30.91;27.74
63554;BME280;49699;48.072;7.800;2023-06-01T13:13:35;99267.22;;;30.98;27.60
63554;BME280;49699;48.072;7.800;2023-06-01T13:16:00;99264.66;;;31.03;27.69
63554;BME280;49699;48.072;7.800;2023-06-01T13:18:26;99265.88;;;31.07;27.51
63554;BME280;49699;48.072;7.800;2023-06-01T13:20:52;99263.50;;;31.17;27.51